UPS272 EDDF-EFHK
Flight info
| Callsign | UPS272 |
|---|---|
| Flight time | N/A |
| Altitude | 35000 |
| Route | MARUN3K MARUN Y150 TOLGI DCT OKAGA DCT ALAMI DCT OKEVU DCT EVADI Y370 DIVAM |
| Aircraft | MD11/H-SDE1E2E3FGHIJ2J3J4J5M1RWXY/LB1D1 |
Departure
| Time | 2026-04-17 10:08 |
|---|---|
| Airport | Frankfurt Main Airport (EDDF) |
Arrival
| Time | N/A |
|---|---|
| Airport | Helsinki Vantaa Airport (EFHK) |
| Time | Latitude | Longitude | Altitude | Speed | Heading |
|---|---|---|---|---|---|
| 2026-04-17 09:45 | 50.02733 | 8.56989 | 357 ft | 0 kts | 250° |
| 2026-04-17 09:52 | 50.02740 | 8.57023 | 360 ft | 4 kts | 250° |
| 2026-04-17 09:52 | 50.02750 | 8.57062 | 364 ft | 3 kts | 250° |
| 2026-04-17 09:53 | 50.02757 | 8.57095 | 362 ft | 4 kts | 266° |
| 2026-04-17 09:53 | 50.02760 | 8.57114 | 367 ft | 4 kts | 325° |
| 2026-04-17 09:53 | 50.02774 | 8.57115 | 366 ft | 0 kts | 2° |
| 2026-04-17 09:58 | 50.02783 | 8.57113 | 366 ft | 2 kts | 350° |
| 2026-04-17 09:59 | 50.02818 | 8.57094 | 367 ft | 9 kts | 340° |
| 2026-04-17 09:59 | 50.02894 | 8.57050 | 364 ft | 15 kts | 339° |
| 2026-04-17 09:59 | 50.03002 | 8.56987 | 365 ft | 16 kts | 340° |
| 2026-04-17 09:59 | 50.03101 | 8.56931 | 367 ft | 14 kts | 340° |
| 2026-04-17 10:00 | 50.03182 | 8.56883 | 367 ft | 12 kts | 340° |
| 2026-04-17 10:00 | 50.03253 | 8.56843 | 364 ft | 10 kts | 340° |
| 2026-04-17 10:00 | 50.03322 | 8.56804 | 364 ft | 10 kts | 342° |
| 2026-04-17 10:00 | 50.03373 | 8.56823 | 358 ft | 6 kts | 38° |
| 2026-04-17 10:01 | 50.03386 | 8.56863 | 367 ft | 5 kts | 69° |
| 2026-04-17 10:01 | 50.03405 | 8.56941 | 363 ft | 11 kts | 69° |
| 2026-04-17 10:01 | 50.03438 | 8.57077 | 368 ft | 16 kts | 69° |
| 2026-04-17 10:01 | 50.03481 | 8.57254 | 363 ft | 17 kts | 70° |
| 2026-04-17 10:02 | 50.03518 | 8.57416 | 366 ft | 14 kts | 70° |
| 2026-04-17 10:02 | 50.03548 | 8.57544 | 369 ft | 11 kts | 70° |
| 2026-04-17 10:02 | 50.03579 | 8.57671 | 371 ft | 14 kts | 69° |
| 2026-04-17 10:02 | 50.03615 | 8.57825 | 370 ft | 16 kts | 69° |
| 2026-04-17 10:03 | 50.03658 | 8.58004 | 369 ft | 19 kts | 69° |
| 2026-04-17 10:03 | 50.03702 | 8.58188 | 370 ft | 17 kts | 69° |
| 2026-04-17 10:03 | 50.03741 | 8.58347 | 373 ft | 15 kts | 69° |
| 2026-04-17 10:03 | 50.03773 | 8.58483 | 371 ft | 12 kts | 69° |
| 2026-04-17 10:04 | 50.03807 | 8.58626 | 373 ft | 16 kts | 69° |
| 2026-04-17 10:04 | 50.03847 | 8.58791 | 373 ft | 15 kts | 69° |
| 2026-04-17 10:04 | 50.03872 | 8.58895 | 378 ft | 5 kts | 71° |
| 2026-04-17 10:04 | 50.03869 | 8.58907 | 377 ft | 1 kts | 112° |
| 2026-04-17 10:05 | 50.03848 | 8.58919 | 378 ft | 8 kts | 165° |
| 2026-04-17 10:05 | 50.03782 | 8.58896 | 374 ft | 12 kts | 226° |
| 2026-04-17 10:05 | 50.03772 | 8.58764 | 371 ft | 12 kts | 306° |
| 2026-04-17 10:05 | 50.03809 | 8.58730 | 376 ft | 3 kts | 336° |
| 2026-04-17 10:06 | 50.03830 | 8.58716 | 375 ft | 3 kts | 338° |
| 2026-04-17 10:06 | 50.03851 | 8.58703 | 377 ft | 4 kts | 339° |
| 2026-04-17 10:06 | 50.03886 | 8.58682 | 377 ft | 10 kts | 339° |
| 2026-04-17 10:06 | 50.03962 | 8.58637 | 378 ft | 8 kts | 338° |
| 2026-04-17 10:07 | 50.03985 | 8.58598 | 377 ft | 3 kts | 282° |
| 2026-04-17 10:07 | 50.03983 | 8.58572 | 377 ft | 4 kts | 261° |
| 2026-04-17 10:07 | 50.03953 | 8.58427 | 376 ft | 36 kts | 250° |
| 2026-04-17 10:07 | 50.03760 | 8.57621 | 371 ft | 121 kts | 249° |
| 2026-04-17 10:08 | 50.03386 | 8.56057 | 374 ft | 179 kts | 249° |
| 2026-04-17 10:08 | 50.02931 | 8.54212 | 853 ft | 184 kts | 249° |
| 2026-04-17 10:08 | 50.02474 | 8.52362 | 1608 ft | 182 kts | 245° |
| 2026-04-17 10:08 | 50.01776 | 8.50687 | 2354 ft | 188 kts | 232° |
| 2026-04-17 10:09 | 50.00861 | 8.49293 | 3383 ft | 181 kts | 213° |
| 2026-04-17 10:09 | 49.99700 | 8.48454 | 4127 ft | 193 kts | 196° |
| 2026-04-17 10:09 | 49.98347 | 8.47960 | 4764 ft | 202 kts | 191° |
| 2026-04-17 10:09 | 49.96963 | 8.47584 | 5592 ft | 203 kts | 190° |
| 2026-04-17 10:10 | 49.95619 | 8.46841 | 6278 ft | 212 kts | 212° |
| 2026-04-17 10:10 | 49.94500 | 8.45163 | 6561 ft | 239 kts | 237° |
| 2026-04-17 10:10 | 49.93939 | 8.42720 | 7126 ft | 244 kts | 260° |
| 2026-04-17 10:11 | 49.94003 | 8.37331 | 7940 ft | 267 kts | 286° |
| 2026-04-17 10:11 | 49.94892 | 8.34653 | 8170 ft | 293 kts | 309° |
| 2026-04-17 10:11 | 49.96475 | 8.32722 | 9226 ft | 290 kts | 332° |
| 2026-04-17 10:11 | 49.98344 | 8.31399 | 9787 ft | 302 kts | 336° |
| 2026-04-17 10:12 | 50.00293 | 8.30155 | 10677 ft | 301 kts | 338° |
| 2026-04-17 10:12 | 50.02266 | 8.28973 | 11352 ft | 312 kts | 341° |
| 2026-04-17 10:12 | 50.04474 | 8.28247 | 11586 ft | 338 kts | 355° |
| 2026-04-17 10:12 | 50.06884 | 8.28425 | 11980 ft | 356 kts | 10° |
| 2026-04-17 10:13 | 50.09313 | 8.29476 | 12588 ft | 366 kts | 17° |
| 2026-04-17 10:13 | 50.11720 | 8.30789 | 13471 ft | 369 kts | 19° |
| 2026-04-17 10:13 | 50.14110 | 8.32194 | 14206 ft | 373 kts | 19° |
| 2026-04-17 10:13 | 50.16582 | 8.33651 | 14894 ft | 377 kts | 19° |
| 2026-04-17 10:14 | 50.19021 | 8.35044 | 15571 ft | 380 kts | 18° |
| 2026-04-17 10:14 | 50.21524 | 8.36431 | 16242 ft | 383 kts | 17° |
| 2026-04-17 10:14 | 50.24057 | 8.37803 | 16903 ft | 387 kts | 17° |
| 2026-04-17 10:14 | 50.26616 | 8.39170 | 17562 ft | 390 kts | 17° |
| 2026-04-17 10:15 | 50.29198 | 8.40548 | 18163 ft | 394 kts | 17° |
| 2026-04-17 10:15 | 50.31799 | 8.41956 | 18754 ft | 397 kts | 17° |
| 2026-04-17 10:15 | 50.34419 | 8.43383 | 19298 ft | 400 kts | 17° |
| 2026-04-17 10:15 | 50.37058 | 8.44824 | 19842 ft | 403 kts | 17° |
| 2026-04-17 10:16 | 50.39714 | 8.46275 | 20360 ft | 406 kts | 17° |
| 2026-04-17 10:16 | 50.42390 | 8.47738 | 20857 ft | 409 kts | 16° |
| 2026-04-17 10:16 | 50.45085 | 8.49212 | 21372 ft | 412 kts | 16° |
| 2026-04-17 10:16 | 50.47807 | 8.50656 | 21879 ft | 414 kts | 15° |
| 2026-04-17 10:17 | 50.50564 | 8.52024 | 22406 ft | 417 kts | 14° |
| 2026-04-17 10:17 | 50.53348 | 8.53361 | 22928 ft | 420 kts | 14° |
| 2026-04-17 10:17 | 50.56160 | 8.54696 | 23467 ft | 424 kts | 14° |
| 2026-04-17 10:17 | 50.58994 | 8.56042 | 23978 ft | 427 kts | 14° |
| 2026-04-17 10:18 | 50.61849 | 8.57407 | 24462 ft | 430 kts | 14° |
| 2026-04-17 10:18 | 50.64717 | 8.58785 | 24968 ft | 432 kts | 14° |
| 2026-04-17 10:18 | 50.67600 | 8.60175 | 25465 ft | 434 kts | 14° |
| 2026-04-17 10:18 | 50.70494 | 8.61573 | 25979 ft | 437 kts | 14° |
| 2026-04-17 10:19 | 50.73410 | 8.62982 | 26472 ft | 439 kts | 13° |
| 2026-04-17 10:19 | 50.76339 | 8.64400 | 26965 ft | 442 kts | 14° |
| 2026-04-17 10:19 | 50.79271 | 8.65960 | 27431 ft | 447 kts | 18° |
| 2026-04-17 10:19 | 50.82060 | 8.68194 | 27907 ft | 454 kts | 30° |
| 2026-04-17 10:20 | 50.84517 | 8.71404 | 28362 ft | 463 kts | 42° |
| 2026-04-17 10:20 | 50.86615 | 8.75322 | 28780 ft | 470 kts | 49° |
| 2026-04-17 10:20 | 50.88542 | 8.79544 | 29239 ft | 475 kts | 51° |
| 2026-04-17 10:20 | 50.90429 | 8.83849 | 29674 ft | 478 kts | 51° |
| 2026-04-17 10:21 | 50.92346 | 8.88172 | 30114 ft | 480 kts | 51° |
| 2026-04-17 10:21 | 50.94304 | 8.92475 | 30479 ft | 482 kts | 50° |
| 2026-04-17 10:21 | 50.96296 | 8.96767 | 30817 ft | 484 kts | 49° |
| 2026-04-17 10:21 | 50.98317 | 9.01063 | 31163 ft | 485 kts | 49° |
| 2026-04-17 10:22 | 51.00341 | 9.05340 | 31582 ft | 485 kts | 49° |
| 2026-04-17 10:22 | 51.02368 | 9.09614 | 32003 ft | 484 kts | 49° |
| 2026-04-17 10:22 | 51.04363 | 9.13827 | 32431 ft | 483 kts | 49° |
| 2026-04-17 10:22 | 51.06386 | 9.18079 | 32831 ft | 481 kts | 47° |
| 2026-04-17 10:23 | 51.08534 | 9.22126 | 33218 ft | 476 kts | 41° |
| 2026-04-17 10:23 | 51.10997 | 9.25675 | 33615 ft | 468 kts | 32° |
| 2026-04-17 10:23 | 51.13731 | 9.28423 | 33977 ft | 460 kts | 21° |
| 2026-04-17 10:23 | 51.16624 | 9.30313 | 34315 ft | 453 kts | 13° |
| 2026-04-17 10:24 | 51.19706 | 9.31597 | 34579 ft | 450 kts | 8° |
| 2026-04-17 10:24 | 51.22728 | 9.32566 | 34852 ft | 449 kts | 6° |
| 2026-04-17 10:24 | 51.25801 | 9.33483 | 35101 ft | 449 kts | 6° |
| 2026-04-17 10:24 | 51.28879 | 9.34424 | 35205 ft | 451 kts | 7° |
| 2026-04-17 10:25 | 51.31964 | 9.35415 | 35223 ft | 452 kts | 7° |
| 2026-04-17 10:25 | 51.38128 | 9.37507 | 35238 ft | 453 kts | 8° |
| 2026-04-17 10:26 | 51.44288 | 9.39661 | 35247 ft | 453 kts | 8° |
| 2026-04-17 10:26 | 51.50458 | 9.41831 | 35238 ft | 454 kts | 7° |
| 2026-04-17 10:27 | 51.56624 | 9.44001 | 35234 ft | 454 kts | 7° |
| 2026-04-17 10:27 | 51.62790 | 9.46174 | 35234 ft | 454 kts | 7° |
| 2026-04-17 10:28 | 51.68961 | 9.48356 | 35238 ft | 454 kts | 7° |
| 2026-04-17 10:28 | 51.75132 | 9.50544 | 35227 ft | 454 kts | 7° |
| 2026-04-17 10:29 | 51.81306 | 9.52775 | 35229 ft | 456 kts | 9° |
| 2026-04-17 10:29 | 51.87182 | 9.56855 | 35229 ft | 468 kts | 28° |
| 2026-04-17 10:30 | 51.92364 | 9.63396 | 35235 ft | 475 kts | 35° |
| 2026-04-17 10:30 | 51.97420 | 9.70272 | 35232 ft | 474 kts | 34° |
| 2026-04-17 10:31 | 52.02566 | 9.76949 | 35240 ft | 473 kts | 33° |
| 2026-04-17 10:31 | 52.07755 | 9.83515 | 35241 ft | 473 kts | 32° |
| 2026-04-17 10:32 | 52.12939 | 9.90066 | 35240 ft | 470 kts | 32° |
| 2026-04-17 10:32 | 52.18086 | 9.96594 | 35242 ft | 469 kts | 32° |
| 2026-04-17 10:33 | 52.23229 | 10.03142 | 35241 ft | 469 kts | 32° |
| 2026-04-17 10:33 | 52.28366 | 10.09706 | 35242 ft | 469 kts | 32° |
| 2026-04-17 10:34 | 52.33501 | 10.16287 | 35256 ft | 469 kts | 32° |
| 2026-04-17 10:34 | 52.38638 | 10.22890 | 35244 ft | 470 kts | 32° |
| 2026-04-17 10:35 | 52.43747 | 10.29477 | 35242 ft | 470 kts | 32° |
| 2026-04-17 10:35 | 52.48882 | 10.36120 | 35257 ft | 470 kts | 32° |
| 2026-04-17 10:36 | 52.54006 | 10.42808 | 35258 ft | 471 kts | 33° |
| 2026-04-17 10:36 | 52.58264 | 10.48399 | 35260 ft | 470 kts | 32° |
| 2026-04-17 10:37 | 52.63294 | 10.54985 | 35256 ft | 470 kts | 32° |
| 2026-04-17 10:37 | 52.68394 | 10.61665 | 35255 ft | 466 kts | 32° |
| 2026-04-17 10:38 | 52.73466 | 10.68321 | 35252 ft | 465 kts | 32° |
| 2026-04-17 10:38 | 52.78527 | 10.74982 | 35268 ft | 466 kts | 32° |
| 2026-04-17 10:39 | 52.83595 | 10.81672 | 35262 ft | 466 kts | 32° |
| 2026-04-17 10:39 | 52.88656 | 10.88377 | 35265 ft | 466 kts | 32° |
| 2026-04-17 10:40 | 52.93714 | 10.95098 | 35268 ft | 466 kts | 32° |
| 2026-04-17 10:40 | 52.98764 | 11.01830 | 35268 ft | 466 kts | 32° |
| 2026-04-17 10:41 | 53.03813 | 11.08581 | 35270 ft | 466 kts | 33° |
| 2026-04-17 10:41 | 53.08864 | 11.15356 | 35270 ft | 466 kts | 33° |
| 2026-04-17 10:42 | 53.13909 | 11.22144 | 35268 ft | 466 kts | 33° |
| 2026-04-17 10:42 | 53.18934 | 11.28969 | 35267 ft | 467 kts | 33° |
| 2026-04-17 10:43 | 53.23956 | 11.35829 | 35275 ft | 465 kts | 33° |
| 2026-04-17 10:43 | 53.28937 | 11.42615 | 35273 ft | 465 kts | 33° |
| 2026-04-17 10:44 | 53.33948 | 11.49441 | 35274 ft | 465 kts | 33° |
| 2026-04-17 10:44 | 53.38959 | 11.56288 | 35276 ft | 465 kts | 33° |
| 2026-04-17 10:45 | 53.43969 | 11.63155 | 35290 ft | 465 kts | 33° |
| 2026-04-17 10:45 | 53.48969 | 11.70031 | 35279 ft | 465 kts | 33° |
| 2026-04-17 10:46 | 53.53967 | 11.76927 | 35279 ft | 465 kts | 33° |
| 2026-04-17 10:46 | 53.58959 | 11.83835 | 35280 ft | 465 kts | 33° |
| 2026-04-17 10:47 | 53.63949 | 11.90763 | 35280 ft | 465 kts | 33° |
| 2026-04-17 10:47 | 53.68937 | 11.97710 | 35282 ft | 465 kts | 33° |
| 2026-04-17 10:48 | 53.73920 | 12.04671 | 35281 ft | 465 kts | 33° |
| 2026-04-17 10:48 | 53.78900 | 12.11652 | 35285 ft | 464 kts | 33° |
| 2026-04-17 10:49 | 53.83839 | 12.18656 | 35288 ft | 463 kts | 34° |
| 2026-04-17 10:49 | 53.88772 | 12.25671 | 35309 ft | 464 kts | 34° |
| 2026-04-17 10:50 | 53.93725 | 12.32694 | 35292 ft | 464 kts | 34° |
| 2026-04-17 10:50 | 53.98679 | 12.39727 | 35293 ft | 464 kts | 34° |
| 2026-04-17 10:51 | 54.03598 | 12.46731 | 35292 ft | 464 kts | 34° |
| 2026-04-17 10:51 | 54.08544 | 12.53798 | 35292 ft | 464 kts | 34° |
| 2026-04-17 10:52 | 54.13491 | 12.60887 | 35294 ft | 465 kts | 34° |
| 2026-04-17 10:52 | 54.18444 | 12.68010 | 35295 ft | 465 kts | 34° |
| 2026-04-17 10:53 | 54.23395 | 12.75152 | 35295 ft | 465 kts | 34° |
| 2026-04-17 10:53 | 54.28338 | 12.82307 | 35304 ft | 466 kts | 34° |
| 2026-04-17 10:54 | 54.33279 | 12.89481 | 35324 ft | 466 kts | 35° |
| 2026-04-17 10:54 | 54.38206 | 12.96660 | 35310 ft | 464 kts | 35° |
| 2026-04-17 10:55 | 54.43124 | 13.03849 | 35308 ft | 465 kts | 35° |
| 2026-04-17 10:55 | 54.48027 | 13.11109 | 35312 ft | 465 kts | 35° |